sensor_id;sensor_type;location;lat;lon;timestamp;temperature;humidity
12233;DHT22;6179;51.748;8.728;2023-07-13T00:03:35;19.20;85.30
12233;DHT22;6179;51.748;8.728;2023-07-13T00:09:35;19.00;86.40
12233;DHT22;6179;51.748;8.728;2023-07-13T00:15:36;18.80;87.90
12233;DHT22;6179;51.748;8.728;2023-07-13T00:21:38;18.70;87.20
12233;DHT22;6179;51.748;8.728;2023-07-13T00:27:39;18.60;88.10
12233;DHT22;6179;51.748;8.728;2023-07-13T00:33:40;18.40;88.50
12233;DHT22;6179;51.748;8.728;2023-07-13T00:39:42;18.30;89.10
12233;DHT22;6179;51.748;8.728;2023-07-13T00:51:50;18.10;90.30
12233;DHT22;6179;51.748;8.728;2023-07-13T00:57:52;17.90;91.10
12233;DHT22;6179;51.748;8.728;2023-07-13T01:03:52;17.80;91.70
12233;DHT22;6179;51.748;8.728;2023-07-13T01:09:54;17.70;92.20
12233;DHT22;6179;51.748;8.728;2023-07-13T01:15:57;17.60;93.40
12233;DHT22;6179;51.748;8.728;2023-07-13T01:21:58;17.50;93.70
12233;DHT22;6179;51.748;8.728;2023-07-13T01:27:59;17.60;93.50
12233;DHT22;6179;51.748;8.728;2023-07-13T01:34:00;17.50;93.90
12233;DHT22;6179;51.748;8.728;2023-07-13T01:40:00;17.40;94.00
12233;DHT22;6179;51.748;8.728;2023-07-13T01:46:01;17.70;93.70
12233;DHT22;6179;51.748;8.728;2023-07-13T01:52:02;17.80;93.60
12233;DHT22;6179;51.748;8.728;2023-07-13T01:58:03;17.70;93.90
12233;DHT22;6179;51.748;8.728;2023-07-13T02:04:04;17.60;94.20
12233;DHT22;6179;51.748;8.728;2023-07-13T02:10:06;17.70;93.80
12233;DHT22;6179;51.748;8.728;2023-07-13T02:16:07;17.30;93.70
12233;DHT22;6179;51.748;8.728;2023-07-13T02:22:08;17.30;93.90
12233;DHT22;6179;51.748;8.728;2023-07-13T02:28:08;17.20;93.50
12233;DHT22;6179;51.748;8.728;2023-07-13T02:34:09;17.30;93.00
12233;DHT22;6179;51.748;8.728;2023-07-13T02:40:10;17.10;92.90
12233;DHT22;6179;51.748;8.728;2023-07-13T02:46:11;17.10;92.50
12233;DHT22;6179;51.748;8.728;2023-07-13T02:52:11;17.20;92.10
12233;DHT22;6179;51.748;8.728;2023-07-13T02:58:12;17.00;92.40
12233;DHT22;6179;51.748;8.728;2023-07-13T03:04:17;16.90;92.50
12233;DHT22;6179;51.748;8.728;2023-07-13T03:10:19;16.70;92.80
12233;DHT22;6179;51.748;8.728;2023-07-13T03:16:20;16.50;92.50
12233;DHT22;6179;51.748;8.728;2023-07-13T03:22:21;16.40;92.90
12233;DHT22;6179;51.748;8.728;2023-07-13T03:28:24;16.90;91.60
12233;DHT22;6179;51.748;8.728;2023-07-13T03:34:24;16.70;92.30
12233;DHT22;6179;51.748;8.728;2023-07-13T03:40:27;16.80;91.00
12233;DHT22;6179;51.748;8.728;2023-07-13T03:46:28;17.00;89.50
12233;DHT22;6179;51.748;8.728;2023-07-13T03:52:29;16.60;90.60
12233;DHT22;6179;51.748;8.728;2023-07-13T03:58:33;16.90;89.60
12233;DHT22;6179;51.748;8.728;2023-07-13T04:04:34;17.00;88.80
12233;DHT22;6179;51.748;8.728;2023-07-13T04:10:34;17.00;87.70
12233;DHT22;6179;51.748;8.728;2023-07-13T04:16:35;16.80;88.70
12233;DHT22;6179;51.748;8.728;2023-07-13T04:22:36;16.60;90.20
12233;DHT22;6179;51.748;8.728;2023-07-13T04:28:36;16.40;90.40
12233;DHT22;6179;51.748;8.728;2023-07-13T04:34:37;16.20;89.50
12233;DHT22;6179;51.748;8.728;2023-07-13T04:40:37;16.50;88.80
12233;DHT22;6179;51.748;8.728;2023-07-13T04:46:38;16.60;87.80
12233;DHT22;6179;51.748;8.728;2023-07-13T04:52:39;16.60;88.50
12233;DHT22;6179;51.748;8.728;2023-07-13T04:58:39;16.90;88.00
12233;DHT22;6179;51.748;8.728;2023-07-13T05:04:40;17.10;87.50
12233;DHT22;6179;51.748;8.728;2023-07-13T05:10:41;17.20;86.90
12233;DHT22;6179;51.748;8.728;2023-07-13T05:16:42;17.30;87.10
12233;DHT22;6179;51.748;8.728;2023-07-13T05:22:43;17.60;86.60
12233;DHT22;6179;51.748;8.728;2023-07-13T05:28:44;17.70;85.90
12233;DHT22;6179;51.748;8.728;2023-07-13T05:34:45;18.00;84.50
12233;DHT22;6179;51.748;8.728;2023-07-13T05:40:46;17.80;84.30
12233;DHT22;6179;51.748;8.728;2023-07-13T05:46:46;17.50;84.70
12233;DHT22;6179;51.748;8.728;2023-07-13T05:52:47;17.60;86.10
12233;DHT22;6179;51.748;8.728;2023-07-13T05:58:48;17.80;86.10
12233;DHT22;6179;51.748;8.728;2023-07-13T06:04:49;18.00;83.80
12233;DHT22;6179;51.748;8.728;2023-07-13T06:10:50;17.60;85.30
12233;DHT22;6179;51.748;8.728;2023-07-13T06:16:50;17.80;86.00
12233;DHT22;6179;51.748;8.728;2023-07-13T06:22:51;17.60;86.90
12233;DHT22;6179;51.748;8.728;2023-07-13T06:28:52;17.40;88.60
12233;DHT22;6179;51.748;8.728;2023-07-13T06:34:54;17.60;87.90
12233;DHT22;6179;51.748;8.728;2023-07-13T06:40:54;17.70;87.10
12233;DHT22;6179;51.748;8.728;2023-07-13T06:46:55;18.00;87.30
12233;DHT22;6179;51.748;8.728;2023-07-13T06:52:56;18.20;88.20
12233;DHT22;6179;51.748;8.728;2023-07-13T06:58:56;18.70;86.40
12233;DHT22;6179;51.748;8.728;2023-07-13T07:04:57;19.10;84.80
12233;DHT22;6179;51.748;8.728;2023-07-13T07:10:57;18.80;86.80
12233;DHT22;6179;51.748;8.728;2023-07-13T07:16:58;18.90;86.20
12233;DHT22;6179;51.748;8.728;2023-07-13T07:22:59;19.10;85.10
12233;DHT22;6179;51.748;8.728;2023-07-13T07:28:59;18.90;85.40
12233;DHT22;6179;51.748;8.728;2023-07-13T07:35:00;19.20;85.40
12233;DHT22;6179;51.748;8.728;2023-07-13T07:41:05;19.60;83.90
12233;DHT22;6179;51.748;8.728;2023-07-13T07:47:07;19.20;85.20
12233;DHT22;6179;51.748;8.728;2023-07-13T07:53:07;19.40;85.00
12233;DHT22;6179;51.748;8.728;2023-07-13T07:59:10;19.80;84.00
12233;DHT22;6179;51.748;8.728;2023-07-13T08:05:11;19.80;84.60
12233;DHT22;6179;51.748;8.728;2023-07-13T08:11:12;19.90;83.20
12233;DHT22;6179;51.748;8.728;2023-07-13T08:17:12;19.80;85.60
12233;DHT22;6179;51.748;8.728;2023-07-13T08:23:13;20.00;84.20
12233;DHT22;6179;51.748;8.728;2023-07-13T08:29:14;20.10;84.40
12233;DHT22;6179;51.748;8.728;2023-07-13T08:35:15;20.70;79.80
12233;DHT22;6179;51.748;8.728;2023-07-13T08:41:17;20.40;82.50
12233;DHT22;6179;51.748;8.728;2023-07-13T08:47:21;20.60;81.40
12233;DHT22;6179;51.748;8.728;2023-07-13T08:53:46;20.80;81.00
12233;DHT22;6179;51.748;8.728;2023-07-13T08:59:45;20.50;80.70
12233;DHT22;6179;51.748;8.728;2023-07-13T09:05:54;20.60;84.60
12233;DHT22;6179;51.748;8.728;2023-07-13T09:12:14;21.30;81.30
12233;DHT22;6179;51.748;8.728;2023-07-13T09:24:35;21.90;75.60
12233;DHT22;6179;51.748;8.728;2023-07-13T09:36:56;22.40;77.60
12233;DHT22;6179;51.748;8.728;2023-07-13T09:42:58;22.30;75.30
12233;DHT22;6179;51.748;8.728;2023-07-13T09:48:58;22.10;76.20
12233;DHT22;6179;51.748;8.728;2023-07-13T09:54:59;22.20;76.80
12233;DHT22;6179;51.748;8.728;2023-07-13T10:01:02;22.40;73.60
12233;DHT22;6179;51.748;8.728;2023-07-13T10:07:12;22.30;76.00
12233;DHT22;6179;51.748;8.728;2023-07-13T10:13:44;22.60;75.20
12233;DHT22;6179;51.748;8.728;2023-07-13T10:19:48;22.10;76.50
12233;DHT22;6179;51.748;8.728;2023-07-13T10:25:49;21.80;76.60
12233;DHT22;6179;51.748;8.728;2023-07-13T10:31:51;21.60;76.50
12233;DHT22;6179;51.748;8.728;2023-07-13T10:38:01;21.50;76.60
12233;DHT22;6179;51.748;8.728;2023-07-13T10:44:15;22.30;75.30
12233;DHT22;6179;51.748;8.728;2023-07-13T10:50:24;21.80;75.80
12233;DHT22;6179;51.748;8.728;2023-07-13T10:56:30;22.40;76.70
12233;DHT22;6179;51.748;8.728;2023-07-13T11:02:30;23.10;74.80
12233;DHT22;6179;51.748;8.728;2023-07-13T11:14:42;22.90;74.30
12233;DHT22;6179;51.748;8.728;2023-07-13T11:20:43;23.20;71.30
12233;DHT22;6179;51.748;8.728;2023-07-13T11:26:52;22.80;76.10
12233;DHT22;6179;51.748;8.728;2023-07-13T11:39:21;24.20;69.30
12233;DHT22;6179;51.748;8.728;2023-07-13T11:45:23;24.40;69.60
12233;DHT22;6179;51.748;8.728;2023-07-13T11:51:33;24.40;68.40
12233;DHT22;6179;51.748;8.728;2023-07-13T11:57:38;23.50;68.80
12233;DHT22;6179;51.748;8.728;2023-07-13T12:03:40;22.90;72.00
12233;DHT22;6179;51.748;8.728;2023-07-13T12:09:41;23.40;72.00
12233;DHT22;6179;51.748;8.728;2023-07-13T12:15:44;23.70;70.50
12233;DHT22;6179;51.748;8.728;2023-07-13T12:21:47;23.80;69.00
12233;DHT22;6179;51.748;8.728;2023-07-13T12:27:49;24.00;69.50
12233;DHT22;6179;51.748;8.728;2023-07-13T12:34:02;24.20;67.60
12233;DHT22;6179;51.748;8.728;2023-07-13T12:40:03;23.70;67.90
12233;DHT22;6179;51.748;8.728;2023-07-13T12:46:18;23.40;69.70
12233;DHT22;6179;51.748;8.728;2023-07-13T12:52:31;23.80;71.10
12233;DHT22;6179;51.748;8.728;2023-07-13T12:58:41;23.80;67.60
12233;DHT22;6179;51.748;8.728;2023-07-13T13:04:43;24.00;67.70
12233;DHT22;6179;51.748;8.728;2023-07-13T13:10:44;23.50;70.60
12233;DHT22;6179;51.748;8.728;2023-07-13T13:16:50;23.20;69.50
12233;DHT22;6179;51.748;8.728;2023-07-13T13:22:51;23.60;72.00
12233;DHT22;6179;51.748;8.728;2023-07-13T13:28:52;23.60;71.30
12233;DHT22;6179;51.748;8.728;2023-07-13T13:34:54;24.30;68.30
12233;DHT22;6179;51.748;8.728;2023-07-13T13:40:55;24.20;69.80
12233;DHT22;6179;51.748;8.728;2023-07-13T13:46:56;24.60;68.90
12233;DHT22;6179;51.748;8.728;2023-07-13T13:52:58;24.40;65.30
12233;DHT22;6179;51.748;8.728;2023-07-13T13:58:59;24.50;67.80
12233;DHT22;6179;51.748;8.728;2023-07-13T14:05:01;25.30;64.60
12233;DHT22;6179;51.748;8.728;2023-07-13T14:11:02;25.10;65.10
12233;DHT22;6179;51.748;8.728;2023-07-13T14:17:03;25.40;63.20
12233;DHT22;6179;51.748;8.728;2023-07-13T14:23:04;25.30;65.30
12233;DHT22;6179;51.748;8.728;2023-07-13T14:29:12;25.00;64.20
12233;DHT22;6179;51.748;8.728;2023-07-13T14:35:15;25.00;65.60
12233;DHT22;6179;51.748;8.728;2023-07-13T14:41:15;25.60;62.10
12233;DHT22;6179;51.748;8.728;2023-07-13T14:47:17;25.10;63.20
12233;DHT22;6179;51.748;8.728;2023-07-13T14:53:18;24.60;65.40
12233;DHT22;6179;51.748;8.728;2023-07-13T14:59:19;24.00;64.90
12233;DHT22;6179;51.748;8.728;2023-07-13T15:05:21;24.00;67.00
12233;DHT22;6179;51.748;8.728;2023-07-13T15:11:24;23.10;70.30
12233;DHT22;6179;51.748;8.728;2023-07-13T15:17:40;21.30;76.20
12233;DHT22;6179;51.748;8.728;2023-07-13T15:23:41;20.80;81.50
12233;DHT22;6179;51.748;8.728;2023-07-13T15:29:42;19.00;94.70
12233;DHT22;6179;51.748;8.728;2023-07-13T15:35:43;17.70;98.30
12233;DHT22;6179;51.748;8.728;2023-07-13T15:41:45;16.60;98.30
12233;DHT22;6179;51.748;8.728;2023-07-13T15:47:47;16.70;98.30
12233;DHT22;6179;51.748;8.728;2023-07-13T15:53:48;16.50;98.30
12233;DHT22;6179;51.748;8.728;2023-07-13T15:59:49;16.90;98.30
12233;DHT22;6179;51.748;8.728;2023-07-13T16:05:51;16.80;98.30
12233;DHT22;6179;51.748;8.728;2023-07-13T16:11:53;17.00;98.30
12233;DHT22;6179;51.748;8.728;2023-07-13T16:17:56;17.30;98.30
12233;DHT22;6179;51.748;8.728;2023-07-13T16:24:01;17.00;98.30
12233;DHT22;6179;51.748;8.728;2023-07-13T16:30:18;16.80;98.30
12233;DHT22;6179;51.748;8.728;2023-07-13T16:36:21;17.30;98.30
12233;DHT22;6179;51.748;8.728;2023-07-13T16:42:22;17.60;98.30
12233;DHT22;6179;51.748;8.728;2023-07-13T16:48:28;18.00;98.30
12233;DHT22;6179;51.748;8.728;2023-07-13T16:54:36;17.80;98.30
12233;DHT22;6179;51.748;8.728;2023-07-13T17:00:38;17.90;98.30
12233;DHT22;6179;51.748;8.728;2023-07-13T17:06:40;17.60;98.30
12233;DHT22;6179;51.748;8.728;2023-07-13T17:12:42;17.10;98.30
12233;DHT22;6179;51.748;8.728;2023-07-13T17:18:43;17.40;98.30
12233;DHT22;6179;51.748;8.728;2023-07-13T17:24:47;17.70;98.30
12233;DHT22;6179;51.748;8.728;2023-07-13T17:30:53;17.80;98.30
12233;DHT22;6179;51.748;8.728;2023-07-13T17:36:54;18.00;98.30
12233;DHT22;6179;51.748;8.728;2023-07-13T17:42:54;18.10;98.30
12233;DHT22;6179;51.748;8.728;2023-07-13T17:48:55;18.00;98.30
12233;DHT22;6179;51.748;8.728;2023-07-13T17:54:59;18.10;98.30
12233;DHT22;6179;51.748;8.728;2023-07-13T18:01:03;18.20;98.30
12233;DHT22;6179;51.748;8.728;2023-07-13T18:07:09;18.00;98.30
12233;DHT22;6179;51.748;8.728;2023-07-13T18:13:13;17.70;98.30
12233;DHT22;6179;51.748;8.728;2023-07-13T18:19:38;17.80;98.30
12233;DHT22;6179;51.748;8.728;2023-07-13T18:25:39;17.90;98.30
12233;DHT22;6179;51.748;8.728;2023-07-13T18:31:42;17.90;98.30
12233;DHT22;6179;51.748;8.728;2023-07-13T18:37:44;18.00;98.30
12233;DHT22;6179;51.748;8.728;2023-07-13T18:43:45;17.90;98.30
12233;DHT22;6179;51.748;8.728;2023-07-13T18:49:49;17.70;98.30
12233;DHT22;6179;51.748;8.728;2023-07-13T18:55:50;17.70;98.30
12233;DHT22;6179;51.748;8.728;2023-07-13T19:01:51;17.50;98.30
12233;DHT22;6179;51.748;8.728;2023-07-13T19:07:53;17.80;98.30
12233;DHT22;6179;51.748;8.728;2023-07-13T19:13:54;17.80;98.30
12233;DHT22;6179;51.748;8.728;2023-07-13T19:19:55;17.80;98.30
12233;DHT22;6179;51.748;8.728;2023-07-13T19:26:02;18.10;98.30
12233;DHT22;6179;51.748;8.728;2023-07-13T19:32:04;18.50;98.30
12233;DHT22;6179;51.748;8.728;2023-07-13T19:38:07;18.30;98.30
12233;DHT22;6179;51.748;8.728;2023-07-13T19:44:12;18.20;98.30
12233;DHT22;6179;51.748;8.728;2023-07-13T19:50:13;18.10;98.30
12233;DHT22;6179;51.748;8.728;2023-07-13T19:56:18;17.80;98.30
12233;DHT22;6179;51.748;8.728;2023-07-13T20:02:23;17.60;98.30
12233;DHT22;6179;51.748;8.728;2023-07-13T20:08:24;17.10;98.30
12233;DHT22;6179;51.748;8.728;2023-07-13T20:14:27;17.00;98.30
12233;DHT22;6179;51.748;8.728;2023-07-13T20:20:34;17.30;98.30
12233;DHT22;6179;51.748;8.728;2023-07-13T20:26:35;17.30;98.30
12233;DHT22;6179;51.748;8.728;2023-07-13T20:32:37;17.40;98.30
12233;DHT22;6179;51.748;8.728;2023-07-13T20:38:38;17.60;98.30
12233;DHT22;6179;51.748;8.728;2023-07-13T20:44:38;17.20;98.30
12233;DHT22;6179;51.748;8.728;2023-07-13T20:50:39;17.30;98.30
12233;DHT22;6179;51.748;8.728;2023-07-13T20:56:40;17.40;98.30
12233;DHT22;6179;51.748;8.728;2023-07-13T21:02:41;17.80;98.30
12233;DHT22;6179;51.748;8.728;2023-07-13T21:08:43;17.40;98.30
12233;DHT22;6179;51.748;8.728;2023-07-13T21:14:44;17.50;98.30
12233;DHT22;6179;51.748;8.728;2023-07-13T21:20:55;17.50;98.30
12233;DHT22;6179;51.748;8.728;2023-07-13T21:26:56;17.60;98.30
12233;DHT22;6179;51.748;8.728;2023-07-13T21:32:58;17.30;98.30
12233;DHT22;6179;51.748;8.728;2023-07-13T21:39:02;17.10;98.30
12233;DHT22;6179;51.748;8.728;2023-07-13T21:45:16;16.90;98.30
12233;DHT22;6179;51.748;8.728;2023-07-13T21:51:21;16.60;98.30
12233;DHT22;6179;51.748;8.728;2023-07-13T21:57:22;16.60;98.30
12233;DHT22;6179;51.748;8.728;2023-07-13T22:03:25;16.40;98.30
12233;DHT22;6179;51.748;8.728;2023-07-13T22:09:26;16.10;98.30
12233;DHT22;6179;51.748;8.728;2023-07-13T22:15:27;16.10;98.30
12233;DHT22;6179;51.748;8.728;2023-07-13T22:21:30;16.10;98.30
12233;DHT22;6179;51.748;8.728;2023-07-13T22:27:31;15.80;98.30
12233;DHT22;6179;51.748;8.728;2023-07-13T22:33:33;15.60;98.30
12233;DHT22;6179;51.748;8.728;2023-07-13T22:39:33;15.60;98.30
12233;DHT22;6179;51.748;8.728;2023-07-13T22:45:35;15.70;98.30
12233;DHT22;6179;51.748;8.728;2023-07-13T22:51:36;15.60;98.30
12233;DHT22;6179;51.748;8.728;2023-07-13T22:57:36;15.50;98.30
12233;DHT22;6179;51.748;8.728;2023-07-13T23:03:37;15.60;98.30
12233;DHT22;6179;51.748;8.728;2023-07-13T23:09:38;15.50;98.30
12233;DHT22;6179;51.748;8.728;2023-07-13T23:15:41;15.50;98.30
12233;DHT22;6179;51.748;8.728;2023-07-13T23:21:50;15.60;98.30
12233;DHT22;6179;51.748;8.728;2023-07-13T23:27:52;15.70;98.30
12233;DHT22;6179;51.748;8.728;2023-07-13T23:33:54;16.00;98.30
12233;DHT22;6179;51.748;8.728;2023-07-13T23:39:56;16.10;98.30
12233;DHT22;6179;51.748;8.728;2023-07-13T23:45:56;16.10;98.30
12233;DHT22;6179;51.748;8.728;2023-07-13T23:52:02;15.90;98.30
12233;DHT22;6179;51.748;8.728;2023-07-13T23:58:03;15.60;98.30
